Observation Tools

Eastern white pine Photo courtesy of Sally and Andy Wasowski, Lady Bird Wildflower Center, www.wildflower.org.

Eastern white pine (Pinus strobus)


Also Known As: Soft pine, White pine, Northern white pine
Plant Family: Pine (Pinacae)
Project BudBurst Plant Group: Conifers

Identification Hints: White pines are distinct in having needles in clusters of 5 that are about 5 inches long. Pinyon pines can also have 5 needles but have shorter stiffer needles and rigid cone scales. Eastern white pine is distinct in having slender needles, and long cones with thin flexible scales. It is very similar to western white pine, but has smaller cones averaging 12 cm (5 in) as contrasted with western white pine which has cones almost twice as large 24 cm (10 in). Both are common ornamentals.

Did you Know? During the age of sail, eastern white pine was valued for masts. In colonial times, many trees were marked with a broad arrow reserving them for use by the British Royal Navy. Today, wood from the eastern white pine is used for cabinets, toys, boxes, and similar items. It is frequently used for windbreaks.


Live Map for Eastern white pine

Other years available for viewing:

Below you can view all observations that have been reported in for Eastern white pine (If the map below is empty then there have not been any observations reported.)

Use the navigation buttons on the left to zoom in/out and pan around. Click on each place marker to get detail information about that observation.

Leaf/Needles/Stalk = Leaf/Needles/Stalk Flower = Flower Pollen = Pollen Fruiting = Fruiting Color = Color

--Back to Top--

close help window button

The table below displays all the data that has been submitted to Project BudBurst. By default, the data is sorted by the date on which the phenophase occurred. Clicking the up and down arrows next to each column name allows you to sort on any value. If there have been more than 10 observations submitted, you can choose how many to display at a time using the "Show __ entries" control. You can also page through the data using the previous and next buttons at the bottom right of the table.

The Search box allows you to search all of the data. Searching by date, species, phenophase, etc. is easy—just start typing and the table will immediately change to contain only observations that contain your search phrase. Do you want to see only 2012 observations? Just type "2012" in the search box. Only want to see maples? Enter "Acer." You can combine searches, too! Searching for "acer 2012" will narrow your results to only the maples that were observed in 2012 (assuming that any observations exist, of course).

Once you have your results in the order desired, you can use any of the buttons above the search box to copy the results to the clipboard; save them as a text, or spreadsheet; or even print them from your browser!

Observational data for Eastern white pine:

help button
Date Contributor Common Name Species Phenophase Latitude Longitude Obs#
Thu Apr 03 00:00:00 GMT 2008 cpartain Eastern white pine Pinus strobus Full Flower 34.766600000000000 -92.369600000000000 2673
Tue May 20 00:00:00 GMT 2008 SusannahPrindle Eastern white pine Pinus strobus Full Flower 39.096700000000000 -77.023900000000000 4623
Sun Feb 15 00:00:00 GMT 2009 anonymous Eastern white pine Pinus strobus First Needles 39.160000000000000 -86.490000000000000 6241
Sat Mar 28 00:00:00 GMT 2009 anonymous Eastern white pine Pinus strobus First Needles 39.175900000000000 -86.534600000000000 6216
Mon Apr 06 00:00:00 GMT 2009 anonymous Eastern white pine Pinus strobus First Pollen 39.175900000000000 -86.534600000000000 6217
Sun Feb 15 00:00:00 GMT 2009 anonymous Eastern white pine Pinus strobus First Needles 39.160000000000000 -86.490000000000000 6238
Thu Apr 02 00:00:00 GMT 2009 jenulsh@northhempstead.com Eastern white pine Pinus strobus First Needles 40.705500000000000 -73.448900000000000 6381
Sat Apr 25 00:00:00 GMT 2009 henrickd Eastern white pine Pinus strobus First Needles 42.017300000000000 -91.586800000000000 6610
Fri May 01 00:00:00 GMT 2009 joe Eastern white pine Pinus strobus First Needles 42.314800000000000 -83.709100000000000 6908
Tue May 05 00:00:00 GMT 2009 joe Eastern white pine Pinus strobus First Pollen 42.314800000000000 -83.709100000000000 7022
Tue May 12 00:00:00 GMT 2009 compobs Eastern white pine Pinus strobus First Needles 45.379400000000000 -93.076700000000000 7551
Sun May 17 00:00:00 GMT 2009 birdlover Eastern white pine Pinus strobus First Needles 40.790300000000000 -96.791500000000000 8211
Wed Jun 10 00:00:00 GMT 2009 palaback Eastern white pine Pinus strobus First Needles 46.858900000000000 -113.985000000000000 8624
Mon Jun 08 00:00:00 GMT 2009 palaback Eastern white pine Pinus strobus First Pollen 46.858900000000000 -113.985000000000000 8625
Wed Jun 10 00:00:00 GMT 2009 palaback Eastern white pine Pinus strobus Full Pollen 46.858900000000000 -113.985000000000000 8626
Tue Apr 21 00:00:00 GMT 2009 anonymous Eastern white pine Pinus strobus First Needles 39.066800000000000 -76.996900000000000 9060
Wed May 13 00:00:00 GMT 2009 anonymous Eastern white pine Pinus strobus First Pollen 39.066800000000000 -76.996900000000000 9061
Sat Aug 15 00:00:00 GMT 2009 anonymous Eastern white pine Pinus strobus First Ripe Fruit 39.066800000000000 -76.996900000000000 9062
Wed Feb 17 00:00:00 GMT 2010 anonymous Eastern white pine Pinus strobus First Needles 38.861200000000000 -86.487200000000000 9117
Wed Feb 17 00:00:00 GMT 2010 anonymous Eastern white pine Pinus strobus First Needles 38.861200000000000 -86.487200000000000 9578
Mon Mar 29 00:00:00 GMT 2010 anonymous Eastern white pine Pinus strobus First Pollen 38.861200000000000 -86.487200000000000 9579
Mon Mar 08 00:00:00 GMT 2010 anonymous Eastern white pine Pinus strobus First Needles 38.861200000000000 -86.487200000000000 9646
Mon Mar 29 00:00:00 GMT 2010 anonymous Eastern white pine Pinus strobus First Pollen 38.861200000000000 -86.487200000000000 9647
Mon Mar 08 00:00:00 GMT 2010 anonymous Eastern white pine Pinus strobus First Needles 38.861200000000000 -86.487200000000000 9644
Mon Mar 29 00:00:00 GMT 2010 anonymous Eastern white pine Pinus strobus First Pollen 38.861200000000000 -86.487200000000000 9645
Wed Mar 31 00:00:00 GMT 2010 anonymous Eastern white pine Pinus strobus First Pollen 36.677700000000000 -80.041400000000000 10507
Sun Apr 11 00:00:00 GMT 2010 anonymous Eastern white pine Pinus strobus First Needles 36.925300000000000 -80.019200000000000 10520
Sat Mar 13 00:00:00 GMT 2010 anonymous Eastern white pine Pinus strobus First Pollen 36.925300000000000 -80.019200000000000 10521
Tue Apr 06 00:00:00 GMT 2010 anonymous Eastern white pine Pinus strobus Full Pollen 36.925300000000000 -80.019200000000000 10522
Fri Apr 02 00:00:00 GMT 2010 Tasha.Berg Eastern white pine Pinus strobus First Pollen 37.541100000000000 -77.536400000000000 10571
Sat Apr 10 00:00:00 GMT 2010 Tasha.Berg Eastern white pine Pinus strobus Full Pollen 37.541100000000000 -77.536400000000000 10572
Tue Apr 20 00:00:00 GMT 2010 birdlover Eastern white pine Pinus strobus First Needles 40.790300000000000 -96.791500000000000 10817
Sat May 01 00:00:00 GMT 2010 SusannahPrindle Eastern white pine Pinus strobus First Needles 39.096700000000000 -77.023900000000000 11062
Mon May 03 00:00:00 GMT 2010 SusannahPrindle Eastern white pine Pinus strobus First Needles 39.096700000000000 -77.023900000000000 11631
Tue May 11 00:00:00 GMT 2010 SusannahPrindle Eastern white pine Pinus strobus Full Pollen 39.096700000000000 -77.023900000000000 11632
Mon May 09 00:00:00 GMT 2011 birdlover Eastern white pine Pinus strobus First Needles 40.790300000000000 -96.791500000000000 13120
Sat May 07 00:00:00 GMT 2011 SusannahPrindle Eastern white pine Pinus strobus First Needles 39.096700000000000 -77.023900000000000 13123
Sun Aug 07 00:00:00 GMT 2011 SusannahPrindle Eastern white pine Pinus strobus First Ripe Fruit 39.096700000000000 -77.023900000000000 13124
Thu Aug 18 00:00:00 GMT 2011 SusannahPrindle Eastern white pine Pinus strobus Full Fruiting 39.096700000000000 -77.023900000000000 13125
Fri Feb 17 00:00:00 GMT 2012 asale003 Eastern white pine Pinus strobus First Needles 37.579400000000000 -76.442200000000000 14099
Fri Mar 02 00:00:00 GMT 2012 cswhite Eastern white pine Pinus strobus First Needles 34.728800000000000 -76.822100000000000 14152
Wed Mar 28 00:00:00 GMT 2012 ZoeKeiper Eastern white pine Pinus strobus First Needles 44.685200000000000 -69.632600000000000 14539
Wed Mar 28 00:00:00 GMT 2012 ZoeKeiper Eastern white pine Pinus strobus Full Pollen 44.685200000000000 -69.632600000000000 14540
Mon Apr 02 00:00:00 GMT 2012 buckfolk Eastern white pine Pinus strobus First Pollen 36.601800000000000 -82.202500000000000 14698
Tue Apr 10 00:00:00 GMT 2012 jrj820 Eastern white pine Pinus strobus Fruit (Early) 42.052100000000000 -87.680100000000000 14897
Tue Apr 10 00:00:00 GMT 2012 ZoeKeiper Eastern white pine Pinus strobus First Ripe Fruit 44.685200000000000 -69.632600000000000 14880
Wed Apr 11 00:00:00 GMT 2012 mustanggirl Eastern white pine Pinus strobus First Needles 42.056000000000000 -87.683900000000000 14935
Thu Apr 19 00:00:00 GMT 2012 jrj820 Eastern white pine Pinus strobus Fruit (Early) 42.052100000000000 -87.680100000000000 15095
Fri Apr 27 00:00:00 GMT 2012 Smcclennon Eastern white pine Pinus strobus First Needles 44.001000000000000 -71.041400000000000 15329
Sun Apr 29 00:00:00 GMT 2012 s_alainar Eastern white pine Pinus strobus First Needles 42.828300000000000 -70.906100000000000 15367
Sun Apr 29 00:00:00 GMT 2012 dipp293 Eastern white pine Pinus strobus First Needles 42.571700000000000 -70.777200000000000 15355
Sun Apr 29 00:00:00 GMT 2012 dipp293 Eastern white pine Pinus strobus Fruit (Early) 42.571700000000000 -70.777200000000000 15354
Sun Apr 29 00:00:00 GMT 2012 chinookoa Eastern white pine Pinus strobus Fruit (Early) 42.590000000000000 -70.860000000000000 15358
Tue May 08 00:00:00 GMT 2012 ZoeKeiper Eastern white pine Pinus strobus First Pollen 44.685200000000000 -69.632600000000000 15495
Wed May 16 00:00:00 GMT 2012 cerendon Eastern white pine Pinus strobus Pollen (Early) 43.960000000000000 -74.164900000000000 15656
Wed May 16 00:00:00 GMT 2012 treespee Eastern white pine Pinus strobus Pollen (Middle) 43.960000000000000 -74.164900000000000 15659
Tue May 22 00:00:00 GMT 2012 buckfolk Eastern white pine Pinus strobus First Needles 36.601800000000000 -82.202500000000000 15764
Wed May 02 00:00:00 GMT 2012 buckfolk Eastern white pine Pinus strobus Full Pollen 36.601800000000000 -82.202500000000000 15765
Tue May 01 00:00:00 GMT 2012 mrsboyle Eastern white pine Pinus strobus First Needles 42.354500000000000 -85.443300000000000 15810
Thu May 10 00:00:00 GMT 2012 mrsboyle Eastern white pine Pinus strobus First Pollen 42.354500000000000 -85.443300000000000 15811
Tue May 22 00:00:00 GMT 2012 mrsboyle Eastern white pine Pinus strobus Full Pollen 42.354500000000000 -85.443300000000000 15812
Sat May 12 00:00:00 GMT 2012 DonnTF Eastern white pine Pinus strobus First Needles 41.904900000000000 -87.932700000000000 15831
Sat May 12 00:00:00 GMT 2012 DonnTF Eastern white pine Pinus strobus First Needles 41.904900000000000 -87.932700000000000 15830
Sat Apr 21 00:00:00 GMT 2012 birdlover Eastern white pine Pinus strobus First Needles 40.790300000000000 -96.791500000000000 16110
Fri Apr 20 00:00:00 GMT 2012 SusannahPrindle Eastern white pine Pinus strobus First Needles 39.096700000000000 -77.023900000000000 16194
Sat May 26 00:00:00 GMT 2012 SusannahPrindle Eastern white pine Pinus strobus Full Pollen 39.096700000000000 -77.023900000000000 16195
Wed Aug 15 00:00:00 GMT 2012 Cheryloakes50 Eastern white pine Pinus strobus Full Fruiting 43.279400000000000 -70.686700000000000 16415
Tue Sep 04 00:00:00 GMT 2012 vzarbaugh Eastern white pine Pinus strobus Fruit (Early) 42.587000000000000 -83.093500000000000 16480
Tue Sep 04 00:00:00 GMT 2012 hailey_abro Eastern white pine Pinus strobus Fruit (Middle) 42.616500000000000 -83.107800000000000 16481
Tue Sep 04 00:00:00 GMT 2012 hailey_abro Eastern white pine Pinus strobus Fruit (Middle) 42.616500000000000 -83.107800000000000 16482
Tue Sep 04 00:00:00 GMT 2012 olngo18 Eastern white pine Pinus strobus Pollen (None) 42.605600000000000 -83.149900000000000 16492
Tue Sep 04 00:00:00 GMT 2012 angelcake1 Eastern white pine Pinus strobus First Needles 42.594000000000000 -83.111600000000000 16495
Tue Sep 04 00:00:00 GMT 2012 olngo18 Eastern white pine Pinus strobus Pollen (None) 42.605600000000000 -83.149900000000000 16497
Tue Sep 04 00:00:00 GMT 2012 aakash00 Eastern white pine Pinus strobus Fruit (Late) 42.615700000000000 -83.106500000000000 16498
Tue Sep 04 00:00:00 GMT 2012 bdstephens18 Eastern white pine Pinus strobus First Needles 42.598500000000000 -83.122100000000000 16507
Tue Sep 04 00:00:00 GMT 2012 bdstephens18 Eastern white pine Pinus strobus First Needles 42.598500000000000 -83.122100000000000 16504
Tue Sep 04 00:00:00 GMT 2012 aakash00 Eastern white pine Pinus strobus Fruit (Middle) 42.615700000000000 -83.106500000000000 16512
Tue Sep 04 00:00:00 GMT 2012 aakash00 Eastern white pine Pinus strobus Full Fruiting 42.615700000000000 -83.106500000000000 16513
Tue Sep 04 00:00:00 GMT 2012 bdstephens18 Eastern white pine Pinus strobus First Needles 42.598500000000000 -83.122100000000000 16443
Wed Sep 05 00:00:00 GMT 2012 apujara Eastern white pine Pinus strobus Fruit (Middle) 42.542100000000000 -83.096300000000000 16536
Thu Sep 20 00:00:00 GMT 2012 Cheryloakes50 Eastern white pine Pinus strobus Full Fruiting 43.190000000000000 -70.360000000000000 16734
Fri Apr 20 00:00:00 GMT 2012 SusannahPrindle Eastern white pine Pinus strobus First Needles 39.096700000000000 -77.023900000000000 17690
Tue Aug 07 00:00:00 GMT 2012 SusannahPrindle Eastern white pine Pinus strobus Full Fruiting 39.096700000000000 -77.023900000000000 17691
Fri Mar 01 00:00:00 GMT 2013 Maxiecat Eastern white pine Pinus strobus First Needles 43.108100000000000 -75.771900000000000 18087
Tue Jan 01 00:00:00 GMT 2013 Anthere Eastern white pine Pinus strobus First Needles 33.444000000000000 -111.938000000000000 18121
Sat Mar 05 00:00:00 GMT 2011 Anthere_Home_reporter7 Eastern white pine Pinus strobus First Needles 33.444000000000000 -111.938000000000000 18122
Wed Mar 13 00:00:00 GMT 2013 fmassy_E._O._Smith_reporter9 Eastern white pine Pinus strobus First Needles 41.801200000000000 -72.241800000000000 18151
Wed Mar 13 00:00:00 GMT 2013 fmassy_E._O._Smith_reporter8 Eastern white pine Pinus strobus First Needles 41.801200000000000 -72.241800000000000 18154
Sun Mar 24 00:00:00 GMT 2013 pkarkos Eastern white pine Pinus strobus First Needles 42.281600000000000 -83.721900000000000 18309
Tue Mar 26 00:00:00 GMT 2013 kspiv Eastern white pine Pinus strobus Pollen (Early) 42.295600000000000 -83.724900000000000 18357
Mon Jan 14 00:00:00 GMT 2013 justinlee Eastern white pine Pinus strobus First Needles 42.297400000000000 -83.719100000000000 18415
Thu Mar 14 00:00:00 GMT 2013 justinlee Eastern white pine Pinus strobus First Pollen 42.297400000000000 -83.719100000000000 18416
Thu Jan 03 00:00:00 GMT 2013 muziguo Eastern white pine Pinus strobus First Needles 39.165300000000000 -86.526400000000000 18481
Fri Jan 25 00:00:00 GMT 2013 mglassey Eastern white pine Pinus strobus First Needles 39.170400000000000 -86.509500000000000 18564
Tue Apr 02 00:00:00 GMT 2013 mglassey Eastern white pine Pinus strobus First Pollen 39.170400000000000 -86.509500000000000 18565
Tue Jan 01 00:00:00 GMT 2013 kmbosler Eastern white pine Pinus strobus First Needles 39.165300000000000 -86.526400000000000 18576
Fri Apr 05 00:00:00 GMT 2013 fmassy_E._O._Smith_reporter2 Eastern white pine Pinus strobus First Needles 41.801200000000000 -72.241800000000000 18657
Mon Apr 15 00:00:00 GMT 2013 storeyr Eastern white pine Pinus strobus First Needles 42.391000000000000 -83.540000000000000 18935
Tue Jan 01 00:00:00 GMT 2013 jiece18 Eastern white pine Pinus strobus First Needles 39.167000000000000 -86.493600000000000 19076
Wed May 01 00:00:00 GMT 2013 Prisms Eastern white pine Pinus strobus First Pollen 42.375900000000000 -72.705500000000000 19512
Mon May 06 00:00:00 GMT 2013 cwetzel_HCC_woodland_trail_reporter4 Eastern white pine Pinus strobus First Needles 42.194000000000000 -72.655600000000000 20128
Mon May 06 00:00:00 GMT 2013 cwetzel_HCC_woodland_trail_reporter16 Eastern white pine Pinus strobus First Needles 42.194000000000000 -72.655600000000000 20199
Mon May 13 00:00:00 GMT 2013 birdbud7 Eastern white pine Pinus strobus First Needles 42.391100000000000 -79.344300000000000 20256
Sat May 18 00:00:00 GMT 2013 Angelyn Eastern white pine Pinus strobus First Needles 35.619100000000000 -82.765100000000000 20770
Sat May 25 00:00:00 GMT 2013 birdlover Eastern white pine Pinus strobus First Needles 40.790300000000000 -96.791500000000000 20885
Sun Jun 02 00:00:00 GMT 2013 Eliot.carlson93 Eastern white pine Pinus strobus First Needles 41.421200000000000 -72.876500000000000 20915
Sat May 11 00:00:00 GMT 2013 SusannahPrindle Eastern white pine Pinus strobus First Needles 39.096700000000000 -77.023900000000000 21737
Wed Sep 11 00:00:00 GMT 2013 hdumont29 Eastern white pine Pinus strobus Full Pollen 43.113500000000000 -71.737100000000000 22052
Mon Sep 16 00:00:00 GMT 2013 hdumont29 Eastern white pine Pinus strobus First Needles 43.113500000000000 -71.737100000000000 22569
Tue Nov 05 00:00:00 GMT 2013 Thomas_Thornton Eastern white pine Pinus strobus Fruit (Late) 35.428700000000000 -80.908300000000000 22968
Sat Nov 23 00:00:00 GMT 2013 bberry Eastern white pine Pinus strobus Full Fruiting 40.766600000000000 -73.974900000000000 23998
Sat May 11 00:00:00 GMT 2013 SusannahPrindle Eastern white pine Pinus strobus First Needles 39.096700000000000 -77.023900000000000 24669
Thu Aug 15 00:00:00 GMT 2013 SusannahPrindle Eastern white pine Pinus strobus Full Fruiting 39.096700000000000 -77.023900000000000 24670
Sat Mar 08 00:00:00 GMT 2014 cdudie Eastern white pine Pinus strobus First Needles (None) 39.817300000000000 -77.175500000000000 26167
Sat Mar 08 00:00:00 GMT 2014 cdudie Eastern white pine Pinus strobus Pollen (None) 39.817300000000000 -77.175500000000000 26168
Sat Mar 08 00:00:00 GMT 2014 cdudie Eastern white pine Pinus strobus Fruit (None) 39.817300000000000 -77.175500000000000 26169
Wed Apr 02 00:00:00 GMT 2008 ESlusser29 Eastern white pine Pinus strobus First Needles 39.728500000000000 -77.027000000000000 26170
Tue Jun 10 00:00:00 GMT 2008 ESlusser29 Eastern white pine Pinus strobus First Pollen 39.728500000000000 -77.027000000000000 26171
Tue Aug 05 00:00:00 GMT 2008 ESlusser29 Eastern white pine Pinus strobus Full Pollen 39.728500000000000 -77.027000000000000 26172
Wed Aug 20 00:00:00 GMT 2008 ESlusser29 Eastern white pine Pinus strobus First Ripe Fruit 39.728500000000000 -77.027000000000000 26173
Fri Sep 12 00:00:00 GMT 2008 ESlusser29 Eastern white pine Pinus strobus Full Fruiting 39.728500000000000 -77.027000000000000 26174
Sat Mar 15 00:00:00 GMT 2014 hayley Eastern white pine Pinus strobus First Needles (None) 39.791700000000000 -76.989000000000000 26977
Sat Mar 15 00:00:00 GMT 2014 hayley Eastern white pine Pinus strobus Pollen (None) 39.791700000000000 -76.989000000000000 26978
Sat Mar 15 00:00:00 GMT 2014 hayley Eastern white pine Pinus strobus Fruit (None) 39.791700000000000 -76.989000000000000 26979
Sun Mar 23 00:00:00 GMT 2014 kjones0438 Eastern white pine Pinus strobus First Needles 37.770300000000000 -87.224700000000000 27515
Sun Mar 23 00:00:00 GMT 2014 kjones0438 Eastern white pine Pinus strobus Pollen (None) 37.770300000000000 -87.224700000000000 27516
Sun Mar 23 00:00:00 GMT 2014 kjones0438 Eastern white pine Pinus strobus Fruit (None) 37.770300000000000 -87.224700000000000 27517
Sun Mar 23 00:00:00 GMT 2014 kjones0438 Eastern white pine Pinus strobus First Needles 37.770300000000000 -87.224700000000000 27512
Sun Mar 23 00:00:00 GMT 2014 kjones0438 Eastern white pine Pinus strobus Pollen (None) 37.770300000000000 -87.224700000000000 27513
Sun Mar 23 00:00:00 GMT 2014 kjones0438 Eastern white pine Pinus strobus Fruit (None) 37.770300000000000 -87.224700000000000 27514
Thu Mar 27 00:00:00 GMT 2014 pghbotanicgarden Eastern white pine Pinus strobus First Needles (None) 40.417100000000000 -80.169300000000000 27665
Thu Mar 27 00:00:00 GMT 2014 pghbotanicgarden Eastern white pine Pinus strobus Pollen (None) 40.417100000000000 -80.169300000000000 27666
Thu Mar 27 00:00:00 GMT 2014 pghbotanicgarden Eastern white pine Pinus strobus Fruit (None) 40.417100000000000 -80.169300000000000 27667
Sun Mar 30 00:00:00 GMT 2014 community_Lasell_College_reporter6 Eastern white pine Pinus strobus First Needles 42.342200000000000 -71.240200000000000 27888
Sun Mar 30 00:00:00 GMT 2014 community_Lasell_College_reporter6 Eastern white pine Pinus strobus Pollen (None) 42.342200000000000 -71.240200000000000 27889
Sun Mar 30 00:00:00 GMT 2014 community_Lasell_College_reporter6 Eastern white pine Pinus strobus Fruit (None) 42.342200000000000 -71.240200000000000 27890
Mon Mar 31 00:00:00 GMT 2014 LaurenHussey Eastern white pine Pinus strobus First Needles 36.630000000000000 -88.715000000000000 27923
Mon Mar 31 00:00:00 GMT 2014 LaurenHussey Eastern white pine Pinus strobus Pollen (Early) 36.630000000000000 -88.715000000000000 27924
Mon Mar 31 00:00:00 GMT 2014 LaurenHussey Eastern white pine Pinus strobus Fruit (Early) 36.630000000000000 -88.715000000000000 27925
Fri Apr 04 00:00:00 GMT 2014 cgibbs0032 Eastern white pine Pinus strobus First Needles (None) 37.900865000000000 -84.490356000000000 28325
Fri Apr 04 00:00:00 GMT 2014 cgibbs0032 Eastern white pine Pinus strobus Pollen (Early) 37.900865000000000 -84.490356000000000 28326
Fri Apr 04 00:00:00 GMT 2014 cgibbs0032 Eastern white pine Pinus strobus Fruit (None) 37.900865000000000 -84.490356000000000 28327
Thu Apr 10 00:00:00 GMT 2014 Buddleia Eastern white pine Pinus strobus First Needles 40.252200000000000 -80.054510000000000 28628
Wed Mar 26 00:00:00 GMT 2014 knreeve Eastern white pine Pinus strobus First Ripe Fruit 39.166802000000000 -86.515541000000000 29018
Tue Apr 15 00:00:00 GMT 2014 ktl55805 Eastern white pine Pinus strobus First Needles 37.195331000000000 -85.676880000000000 29414
Tue Apr 15 00:00:00 GMT 2014 ktl55805 Eastern white pine Pinus strobus Pollen (None) 37.195331000000000 -85.676880000000000 29415
Tue Apr 15 00:00:00 GMT 2014 ktl55805 Eastern white pine Pinus strobus Fruit (None) 37.195331000000000 -85.676880000000000 29416
Fri May 02 00:00:00 GMT 2014 NikoG Eastern white pine Pinus strobus First Needles 42.130850000000000 -72.548250000000000 31217
Fri May 02 00:00:00 GMT 2014 NikoG Eastern white pine Pinus strobus Pollen (None) 42.130850000000000 -72.548250000000000 31218
Fri May 02 00:00:00 GMT 2014 NikoG Eastern white pine Pinus strobus Fruit (None) 42.130850000000000 -72.548250000000000 31219
Fri May 02 00:00:00 GMT 2014 nicolebermudez2014 Eastern white pine Pinus strobus First Needles 40.000000000000000 -100.000000000000000 31275
Fri May 02 00:00:00 GMT 2014 nicolebermudez2014 Eastern white pine Pinus strobus Pollen (None) 40.000000000000000 -100.000000000000000 31276
Fri May 02 00:00:00 GMT 2014 nicolebermudez2014 Eastern white pine Pinus strobus Fruit (Late) 40.000000000000000 -100.000000000000000 31277
Fri May 02 00:00:00 GMT 2014 buddyburst21 Eastern white pine Pinus strobus First Needles (None) 40.000000000000000 -100.000000000000000 31220
Fri May 02 00:00:00 GMT 2014 buddyburst21 Eastern white pine Pinus strobus Pollen (None) 40.000000000000000 -100.000000000000000 31221
Fri May 02 00:00:00 GMT 2014 kaila001 Eastern white pine Pinus strobus First Needles 42.130850000000000 -72.548250000000000 31226
Fri May 02 00:00:00 GMT 2014 kaila001 Eastern white pine Pinus strobus Pollen (None) 42.130850000000000 -72.548250000000000 31227
Fri May 02 00:00:00 GMT 2014 buddyburst21 Eastern white pine Pinus strobus Fruit (None) 40.000000000000000 -100.000000000000000 31222
Fri May 02 00:00:00 GMT 2014 kaila001 Eastern white pine Pinus strobus Fruit (Early) 42.130850000000000 -72.548250000000000 31228
Fri May 02 00:00:00 GMT 2014 buddyburst21 Eastern white pine Pinus strobus First Needles (None) 40.000000000000000 -100.000000000000000 31223
Fri May 02 00:00:00 GMT 2014 buddyburst21 Eastern white pine Pinus strobus Pollen (None) 40.000000000000000 -100.000000000000000 31224
Fri May 02 00:00:00 GMT 2014 buddyburst21 Eastern white pine Pinus strobus Fruit (None) 40.000000000000000 -100.000000000000000 31225
Wed May 14 00:00:00 GMT 2014 kaila001 Eastern white pine Pinus strobus First Needles 42.130850000000000 -72.548250000000000 32313
Wed May 14 00:00:00 GMT 2014 kaila001 Eastern white pine Pinus strobus Pollen (None) 42.130850000000000 -72.548250000000000 32314
Wed May 14 00:00:00 GMT 2014 kaila001 Eastern white pine Pinus strobus Fruit (Early) 42.130850000000000 -72.548250000000000 32315
Wed May 14 00:00:00 GMT 2014 nicolebermudez2014 Eastern white pine Pinus strobus First Needles 40.000000000000000 -100.000000000000000 32321
Wed May 14 00:00:00 GMT 2014 nicolebermudez2014 Eastern white pine Pinus strobus Pollen (None) 40.000000000000000 -100.000000000000000 32322
Wed May 14 00:00:00 GMT 2014 nicolebermudez2014 Eastern white pine Pinus strobus Fruit (Late) 40.000000000000000 -100.000000000000000 32323
Tue Jun 10 00:00:00 GMT 2014 Ballstonspa Eastern white pine Pinus strobus First Needles 42.991200000000000 -73.855540000000000 33901
Tue Jun 10 00:00:00 GMT 2014 Ballstonspa Eastern white pine Pinus strobus Pollen (Middle) 42.991200000000000 -73.855540000000000 33902
Tue Jun 10 00:00:00 GMT 2014 Ballstonspa Eastern white pine Pinus strobus Fruit (None) 42.991200000000000 -73.855540000000000 33903
Thu Jun 12 00:00:00 GMT 2014 Ballstonspa Eastern white pine Pinus strobus First Needles (None) 40.000000000000000 -100.000000000000000 34015
Thu Jun 12 00:00:00 GMT 2014 Ballstonspa Eastern white pine Pinus strobus Pollen (None) 40.000000000000000 -100.000000000000000 34016
Thu Jun 12 00:00:00 GMT 2014 Ballstonspa Eastern white pine Pinus strobus Fruit (Late) 40.000000000000000 -100.000000000000000 34017
Thu Jun 12 00:00:00 GMT 2014 Ballstonspa Eastern white pine Pinus strobus First Needles 42.984558000000000 -73.784180000000000 34039
Thu Jun 12 00:00:00 GMT 2014 Ballstonspa Eastern white pine Pinus strobus Pollen (None) 42.984558000000000 -73.784180000000000 34040
Thu Jun 12 00:00:00 GMT 2014 Ballstonspa Eastern white pine Pinus strobus Fruit (Early) 42.984558000000000 -73.784180000000000 34041
Sat May 10 00:00:00 GMT 2014 birdlover Eastern white pine Pinus strobus First Needles 40.790300000000000 -96.791500000000000 34146
Sat May 10 00:00:00 GMT 2014 SusannahPrindle Eastern white pine Pinus strobus First Needles 39.096700000000000 -77.023900000000000 34791
Sat Aug 30 00:00:00 GMT 2014 EmmanuelLopez96 Eastern white pine Pinus strobus First Ripe Fruit 42.131260000000000 -72.545920000000000 35897
Mon Sep 29 00:00:00 GMT 2014 EmmanuelLopez96 Eastern white pine Pinus strobus Full Fruiting 42.131260000000000 -72.545920000000000 35898
Sun Oct 05 00:00:00 GMT 2014 jlsnyder335_4H_reporter19 Eastern white pine Pinus strobus First Needles (None) 36.074290000000000 -79.332100000000000 36143
Sun Oct 05 00:00:00 GMT 2014 jlsnyder335_4H_reporter19 Eastern white pine Pinus strobus Pollen (None) 36.074290000000000 -79.332100000000000 36144
Sun Oct 05 00:00:00 GMT 2014 jlsnyder335_4H_reporter19 Eastern white pine Pinus strobus Fruit (None) 36.074290000000000 -79.332100000000000 36145
Fri Oct 10 00:00:00 GMT 2014 jgarrett0113 Eastern white pine Pinus strobus First Needles (None) 37.022730000000000 -88.696230000000000 36578
Fri Oct 10 00:00:00 GMT 2014 jgarrett0113 Eastern white pine Pinus strobus Pollen (Middle) 37.022730000000000 -88.696230000000000 36579
Fri Oct 10 00:00:00 GMT 2014 jgarrett0113 Eastern white pine Pinus strobus Fruit (None) 37.022730000000000 -88.696230000000000 36580
Fri Oct 10 00:00:00 GMT 2014 jgarrett0113 Eastern white pine Pinus strobus First Needles (None) 37.022730000000000 -88.696230000000000 36575
Fri Oct 10 00:00:00 GMT 2014 jgarrett0113 Eastern white pine Pinus strobus Pollen (None) 37.022730000000000 -88.696230000000000 36576
Fri Oct 10 00:00:00 GMT 2014 jgarrett0113 Eastern white pine Pinus strobus Fruit (None) 37.022730000000000 -88.696230000000000 36577
Fri Sep 26 00:00:00 GMT 2014 jgarrett0113 Eastern white pine Pinus strobus First Needles (None) 37.022730000000000 -88.696230000000000 36572
Fri Sep 26 00:00:00 GMT 2014 jgarrett0113 Eastern white pine Pinus strobus Pollen (None) 37.022730000000000 -88.696230000000000 36573
Fri Sep 26 00:00:00 GMT 2014 jgarrett0113 Eastern white pine Pinus strobus Fruit (None) 37.022730000000000 -88.696230000000000 36574
Sun Oct 12 00:00:00 GMT 2014 JBarrett Eastern white pine Pinus strobus First Needles 36.829790000000000 -84.849110000000000 36799
Sun Oct 12 00:00:00 GMT 2014 JBarrett Eastern white pine Pinus strobus Pollen (Middle) 36.829790000000000 -84.849110000000000 36800
Sun Oct 12 00:00:00 GMT 2014 JBarrett Eastern white pine Pinus strobus Fruit (Late) 36.829790000000000 -84.849110000000000 36801
Sun Oct 12 00:00:00 GMT 2014 JBarrett Eastern white pine Pinus strobus First Needles 36.829790000000000 -84.849110000000000 36802
Sun Oct 12 00:00:00 GMT 2014 JBarrett Eastern white pine Pinus strobus Pollen (Middle) 36.829790000000000 -84.849110000000000 36803
Sun Oct 12 00:00:00 GMT 2014 JBarrett Eastern white pine Pinus strobus Fruit (Late) 36.829790000000000 -84.849110000000000 36804
Sun Oct 12 00:00:00 GMT 2014 JBarrett Eastern white pine Pinus strobus First Needles 36.829790000000000 -84.849110000000000 36805
Sun Oct 12 00:00:00 GMT 2014 JBarrett Eastern white pine Pinus strobus Pollen (Middle) 36.829790000000000 -84.849110000000000 36806
Sun Oct 12 00:00:00 GMT 2014 JBarrett Eastern white pine Pinus strobus Fruit (Late) 36.829790000000000 -84.849110000000000 36807
Sun Oct 12 00:00:00 GMT 2014 monikablaine Eastern white pine Pinus strobus First Needles 37.946439000000000 -86.177405000000000 36994
Sun Oct 12 00:00:00 GMT 2014 monikablaine Eastern white pine Pinus strobus Pollen (Early) 37.946439000000000 -86.177405000000000 36995
Sun Oct 12 00:00:00 GMT 2014 monikablaine Eastern white pine Pinus strobus Fruit (Early) 37.946439000000000 -86.177405000000000 36996
Sun Oct 12 00:00:00 GMT 2014 monikablaine Eastern white pine Pinus strobus First Needles 37.946439000000000 -86.177405000000000 36991
Sun Oct 12 00:00:00 GMT 2014 monikablaine Eastern white pine Pinus strobus Pollen (Early) 37.946439000000000 -86.177405000000000 36992
Sun Oct 12 00:00:00 GMT 2014 monikablaine Eastern white pine Pinus strobus First Needles 37.946439000000000 -86.177405000000000 37002
Sun Oct 12 00:00:00 GMT 2014 monikablaine Eastern white pine Pinus strobus Pollen (Early) 37.946439000000000 -86.177405000000000 37003
Sun Oct 12 00:00:00 GMT 2014 monikablaine Eastern white pine Pinus strobus Fruit (Early) 37.946439000000000 -86.177405000000000 37004
Sun Oct 12 00:00:00 GMT 2014 monikablaine Eastern white pine Pinus strobus Fruit (Middle) 37.946439000000000 -86.177405000000000 36993
Tue Oct 14 00:00:00 GMT 2014 AntonioN Eastern white pine Pinus strobus First Needles (None) 42.656967000000000 -71.408420000000000 37124
Tue Oct 14 00:00:00 GMT 2014 AntonioN Eastern white pine Pinus strobus Pollen (None) 42.656967000000000 -71.408420000000000 37125
Tue Oct 14 00:00:00 GMT 2014 AntonioN Eastern white pine Pinus strobus Fruit (None) 42.656967000000000 -71.408420000000000 37126
Tue Sep 02 00:00:00 GMT 2014 AntonioN Eastern white pine Pinus strobus First Needles (None) 42.656967000000000 -71.408420000000000 37162
Tue Sep 02 00:00:00 GMT 2014 AntonioN Eastern white pine Pinus strobus Pollen (None) 42.656967000000000 -71.408420000000000 37163
Tue Sep 02 00:00:00 GMT 2014 AntonioN Eastern white pine Pinus strobus Fruit (None) 42.656967000000000 -71.408420000000000 37164
Tue Sep 02 00:00:00 GMT 2014 patricksavage Eastern white pine Pinus strobus First Needles (None) 42.656403000000000 -71.408129000000000 37110
Tue Sep 02 00:00:00 GMT 2014 patricksavage Eastern white pine Pinus strobus Pollen (None) 42.656403000000000 -71.408129000000000 37111
Tue Sep 02 00:00:00 GMT 2014 patricksavage Eastern white pine Pinus strobus Fruit (Middle) 42.656403000000000 -71.408129000000000 37112
Tue Sep 02 00:00:00 GMT 2014 JennaIACS Eastern white pine Pinus strobus First Needles (None) 42.657025000000000 -71.408819000000000 37113
Tue Sep 02 00:00:00 GMT 2014 JennaIACS Eastern white pine Pinus strobus Pollen (None) 42.657025000000000 -71.408819000000000 37114
Tue Sep 02 00:00:00 GMT 2014 JennaIACS Eastern white pine Pinus strobus Fruit (None) 42.657025000000000 -71.408819000000000 37115
Tue Oct 14 00:00:00 GMT 2014 patricksavage Eastern white pine Pinus strobus First Needles (None) 42.656498000000000 -71.408215000000000 37116
Tue Oct 14 00:00:00 GMT 2014 patricksavage Eastern white pine Pinus strobus Pollen (None) 42.656498000000000 -71.408215000000000 37117
Tue Oct 14 00:00:00 GMT 2014 patricksavage Eastern white pine Pinus strobus Fruit (None) 42.656498000000000 -71.408215000000000 37118
Tue Oct 14 00:00:00 GMT 2014 JennaIACS Eastern white pine Pinus strobus First Needles (None) 42.657025000000000 -71.408819000000000 37107
Tue Oct 14 00:00:00 GMT 2014 JennaIACS Eastern white pine Pinus strobus Pollen (None) 42.657025000000000 -71.408819000000000 37108
Tue Oct 14 00:00:00 GMT 2014 JennaIACS Eastern white pine Pinus strobus Fruit (None) 42.657025000000000 -71.408819000000000 37109
Thu Oct 16 00:00:00 GMT 2014 mlgsnipars Eastern white pine Pinus strobus First Needles (None) 42.658620000000000 -71.408140000000000 37373
Thu Oct 16 00:00:00 GMT 2014 mlgsnipars Eastern white pine Pinus strobus Pollen (None) 42.658620000000000 -71.408140000000000 37374
Thu Oct 16 00:00:00 GMT 2014 mlgsnipars Eastern white pine Pinus strobus Fruit (None) 42.658620000000000 -71.408140000000000 37375
Fri Oct 17 00:00:00 GMT 2014 rshuman Eastern white pine Pinus strobus First Needles (None) 44.669140000000000 -73.663090000000000 37873
Fri Oct 17 00:00:00 GMT 2014 rshuman Eastern white pine Pinus strobus Pollen (None) 44.669140000000000 -73.663090000000000 37874
Fri Oct 17 00:00:00 GMT 2014 rshuman Eastern white pine Pinus strobus Fruit (None) 44.669140000000000 -73.663090000000000 37875
Sat Oct 04 00:00:00 GMT 2014 rshuman Eastern white pine Pinus strobus First Needles (None) 44.712080000000000 -73.615410000000000 37782
Sat Oct 04 00:00:00 GMT 2014 rshuman Eastern white pine Pinus strobus Pollen (None) 44.712080000000000 -73.615410000000000 37783
Sat Oct 04 00:00:00 GMT 2014 rshuman Eastern white pine Pinus strobus Fruit (Late) 44.712080000000000 -73.615410000000000 37784
Sun Oct 05 00:00:00 GMT 2014 rshuman Eastern white pine Pinus strobus First Needles 44.690290000000000 -73.611030000000000 37798
Sun Oct 05 00:00:00 GMT 2014 rshuman Eastern white pine Pinus strobus Pollen (None) 44.690290000000000 -73.611030000000000 37799
Sun Oct 05 00:00:00 GMT 2014 rshuman Eastern white pine Pinus strobus Fruit (Middle) 44.690290000000000 -73.611030000000000 37800
Fri Oct 17 00:00:00 GMT 2014 rshuman Eastern white pine Pinus strobus First Needles 44.700900000000000 -73.563800000000000 37713
Fri Oct 17 00:00:00 GMT 2014 rshuman Eastern white pine Pinus strobus Pollen (None) 44.700900000000000 -73.563800000000000 37714
Fri Oct 17 00:00:00 GMT 2014 rshuman Eastern white pine Pinus strobus Fruit (None) 44.700900000000000 -73.563800000000000 37715
Fri Oct 17 00:00:00 GMT 2014 rshuman Eastern white pine Pinus strobus First Needles (None) 44.615710000000000 -73.785310000000000 37958
Fri Oct 17 00:00:00 GMT 2014 rshuman Eastern white pine Pinus strobus Pollen (None) 44.615710000000000 -73.785310000000000 37959
Fri Oct 17 00:00:00 GMT 2014 rshuman Eastern white pine Pinus strobus Fruit (None) 44.615710000000000 -73.785310000000000 37960
Fri Oct 17 00:00:00 GMT 2014 Odahviing_123 Eastern white pine Pinus strobus First Needles (None) 42.657129000000000 -71.408966000000000 38111
Fri Oct 17 00:00:00 GMT 2014 Odahviing_123 Eastern white pine Pinus strobus Pollen (None) 42.657129000000000 -71.408966000000000 38112
Fri Oct 17 00:00:00 GMT 2014 Odahviing_123 Eastern white pine Pinus strobus Fruit (None) 42.657129000000000 -71.408966000000000 38113
Fri Oct 17 00:00:00 GMT 2014 rshuman Eastern white pine Pinus strobus First Needles (None) 44.696664000000000 -73.657547000000000 38305
Fri Oct 17 00:00:00 GMT 2014 rshuman Eastern white pine Pinus strobus Pollen (Middle) 44.696664000000000 -73.657547000000000 38306
Fri Oct 17 00:00:00 GMT 2014 rshuman Eastern white pine Pinus strobus Fruit (Middle) 44.696664000000000 -73.657547000000000 38307
Fri Oct 17 00:00:00 GMT 2014 rshuman Eastern white pine Pinus strobus First Needles (None) 44.698370000000000 -73.562690000000000 38315
Fri Oct 17 00:00:00 GMT 2014 rshuman Eastern white pine Pinus strobus Pollen (None) 44.698370000000000 -73.562690000000000 38316
Fri Oct 17 00:00:00 GMT 2014 rshuman Eastern white pine Pinus strobus Fruit (Late) 44.698370000000000 -73.562690000000000 38317
Fri Oct 17 00:00:00 GMT 2014 rshuman Eastern white pine Pinus strobus First Needles (None) 44.676180000000000 -73.667960000000000 38513
Fri Oct 17 00:00:00 GMT 2014 rshuman Eastern white pine Pinus strobus Pollen (None) 44.676180000000000 -73.667960000000000 38514
Fri Oct 17 00:00:00 GMT 2014 rshuman Eastern white pine Pinus strobus Fruit (Late) 44.676180000000000 -73.667960000000000 38515
Fri Oct 17 00:00:00 GMT 2014 rshuman Eastern white pine Pinus strobus First Needles 44.708800000000000 -73.591220000000000 38461
Fri Oct 17 00:00:00 GMT 2014 rshuman Eastern white pine Pinus strobus Pollen (None) 44.708800000000000 -73.591220000000000 38462
Fri Oct 17 00:00:00 GMT 2014 rshuman Eastern white pine Pinus strobus Fruit (Middle) 44.708800000000000 -73.591220000000000 38463
Fri Oct 17 00:00:00 GMT 2014 rshuman Eastern white pine Pinus strobus First Needles (None) 44.701370000000000 -73.567780000000000 38491
Fri Oct 17 00:00:00 GMT 2014 rshuman Eastern white pine Pinus strobus Pollen (None) 44.701370000000000 -73.567780000000000 38492
Fri Oct 17 00:00:00 GMT 2014 rshuman Eastern white pine Pinus strobus Fruit (Middle) 44.701370000000000 -73.567780000000000 38493
Sat Jan 23 00:00:00 GMT 2016 motem Eastern white pine Pinus strobus First Needles 39.155880600000000 -86.524718800000000 64395
Mon Apr 25 00:00:00 GMT 2016 allison_in_color Eastern white pine Pinus strobus First Needles 40.117170000000000 -75.110560000000000 65230
Mon Apr 25 00:00:00 GMT 2016 allison_in_color Eastern white pine Pinus strobus Pollen (Early) 40.117170000000000 -75.110560000000000 65231
Mon Apr 25 00:00:00 GMT 2016 allison_in_color Eastern white pine Pinus strobus Fruit (None) 40.117170000000000 -75.110560000000000 65232
Mon Apr 25 00:00:00 GMT 2016 katfadigan Eastern white pine Pinus strobus First Needles 40.131380000000000 -75.137030000000000 65238
Mon Apr 25 00:00:00 GMT 2016 katfadigan Eastern white pine Pinus strobus Pollen (Early) 40.131380000000000 -75.137030000000000 65239
Mon Apr 25 00:00:00 GMT 2016 katfadigan Eastern white pine Pinus strobus Fruit (None) 40.131380000000000 -75.137030000000000 65240
Mon Apr 25 00:00:00 GMT 2016 charlesli Eastern white pine Pinus strobus First Needles (None) 40.155000000000000 -75.110300000000000 65349
Mon Apr 25 00:00:00 GMT 2016 charlesli Eastern white pine Pinus strobus Pollen (None) 40.155000000000000 -75.110300000000000 65350
Mon Apr 25 00:00:00 GMT 2016 charlesli Eastern white pine Pinus strobus Fruit (None) 40.155000000000000 -75.110300000000000 65351
Mon Apr 25 00:00:00 GMT 2016 birdlover Eastern white pine Pinus strobus First Needles 40.790300000000000 -96.791500000000000 66050
Wed May 04 00:00:00 GMT 2016 sawdyme_Harold_S._Vincent_High_School_of_Urban_Agriculture_reporter5 Eastern white pine Pinus strobus First Needles 43.154700000000000 -88.031120000000000 66310
Wed May 04 00:00:00 GMT 2016 sawdyme_Harold_S._Vincent_High_School_of_Urban_Agriculture_reporter5 Eastern white pine Pinus strobus Pollen (Early) 43.154700000000000 -88.031120000000000 66311
Wed May 04 00:00:00 GMT 2016 sawdyme_Harold_S._Vincent_High_School_of_Urban_Agriculture_reporter5 Eastern white pine Pinus strobus Fruit (Early) 43.154700000000000 -88.031120000000000 66312
Thu May 12 00:00:00 GMT 2016 zathr6800 Eastern white pine Pinus strobus First Needles 39.958553000000000 -82.437941000000000 66981
Thu May 12 00:00:00 GMT 2016 zathr6800 Eastern white pine Pinus strobus Pollen (Early) 39.958553000000000 -82.437941000000000 66982
Thu May 12 00:00:00 GMT 2016 zathr6800 Eastern white pine Pinus strobus Fruit (Early) 39.958553000000000 -82.437941000000000 66983
Thu Jun 16 00:00:00 GMT 2016 fulmertracy Eastern white pine Pinus strobus First Needles (None) 38.731740000000000 -82.997670000000000 68384
Thu Jun 16 00:00:00 GMT 2016 fulmertracy Eastern white pine Pinus strobus Pollen (None) 38.731740000000000 -82.997670000000000 68385
Thu Jun 16 00:00:00 GMT 2016 fulmertracy Eastern white pine Pinus strobus Fruit (None) 38.731740000000000 -82.997670000000000 68386
Fri May 13 00:00:00 GMT 2016 bthomps1 Eastern white pine Pinus strobus First Needles 38.195980000000000 -85.534280000000000 68445
Fri May 13 00:00:00 GMT 2016 bthomps1 Eastern white pine Pinus strobus First Pollen 38.195980000000000 -85.534280000000000 68446
Mon May 16 00:00:00 GMT 2016 bthomps1 Eastern white pine Pinus strobus Full Pollen 38.195980000000000 -85.534280000000000 68447
Tue Jul 12 00:00:00 GMT 2016 MBGYouthandFamily Eastern white pine Pinus strobus First Needles (None) 38.614890500000000 -90.258110400000000 68838
Tue Jul 12 00:00:00 GMT 2016 MBGYouthandFamily Eastern white pine Pinus strobus Pollen (None) 38.614890500000000 -90.258110400000000 68839
Tue Jul 12 00:00:00 GMT 2016 MBGYouthandFamily Eastern white pine Pinus strobus Fruit (None) 38.614890500000000 -90.258110400000000 68840
Tue Jul 12 00:00:00 GMT 2016 MBGYouthandFamily Eastern white pine Pinus strobus First Needles (None) 38.614947100000000 -90.258373100000000 68841
Tue Jul 12 00:00:00 GMT 2016 MBGYouthandFamily Eastern white pine Pinus strobus Pollen (None) 38.614947100000000 -90.258373100000000 68842
Tue Jul 12 00:00:00 GMT 2016 MBGYouthandFamily Eastern white pine Pinus strobus Fruit (None) 38.614947100000000 -90.258373100000000 68843
Tue Aug 09 00:00:00 GMT 2016 MBGYouthandFamily Eastern white pine Pinus strobus First Needles (None) 38.614947100000000 -90.258337310000000 69377
Tue Aug 09 00:00:00 GMT 2016 MBGYouthandFamily Eastern white pine Pinus strobus Pollen (None) 38.614947100000000 -90.258337310000000 69378
Tue Aug 09 00:00:00 GMT 2016 MBGYouthandFamily Eastern white pine Pinus strobus Fruit (Early) 38.614947100000000 -90.258337310000000 69379
Wed Aug 10 00:00:00 GMT 2016 MBGYouthandFamily Eastern white pine Pinus strobus First Needles (None) 38.614890500000000 -90.258110400000000 69384
Wed Aug 10 00:00:00 GMT 2016 MBGYouthandFamily Eastern white pine Pinus strobus Pollen (None) 38.614890500000000 -90.258110400000000 69385
Wed Aug 10 00:00:00 GMT 2016 MBGYouthandFamily Eastern white pine Pinus strobus Fruit (Early) 38.614890500000000 -90.258110400000000 69386
Wed Aug 17 00:00:00 GMT 2016 MBGYouthandFamily Eastern white pine Pinus strobus First Needles (None) 38.614947100000000 -90.258373100000000 69467
Wed Aug 17 00:00:00 GMT 2016 MBGYouthandFamily Eastern white pine Pinus strobus Pollen (None) 38.614947100000000 -90.258373100000000 69468
Wed Aug 17 00:00:00 GMT 2016 MBGYouthandFamily Eastern white pine Pinus strobus Fruit (Middle) 38.614947100000000 -90.258373100000000 69469
Wed Aug 17 00:00:00 GMT 2016 MBGYouthandFamily Eastern white pine Pinus strobus First Needles (None) 38.614890500000000 -90.258110100000000 69470
Wed Aug 17 00:00:00 GMT 2016 MBGYouthandFamily Eastern white pine Pinus strobus Pollen (None) 38.614890500000000 -90.258110100000000 69471
Wed Aug 17 00:00:00 GMT 2016 MBGYouthandFamily Eastern white pine Pinus strobus Fruit (Middle) 38.614890500000000 -90.258110100000000 69472
Mon Aug 29 00:00:00 GMT 2016 MBGYouthandFamily Eastern white pine Pinus strobus First Needles (None) 38.614890500000000 -90.258110400000000 69549
Mon Aug 29 00:00:00 GMT 2016 MBGYouthandFamily Eastern white pine Pinus strobus Pollen (None) 38.614890500000000 -90.258110400000000 69550
Mon Aug 29 00:00:00 GMT 2016 MBGYouthandFamily Eastern white pine Pinus strobus Fruit (Early) 38.614890500000000 -90.258110400000000 69551
Mon Aug 29 00:00:00 GMT 2016 MBGYouthandFamily Eastern white pine Pinus strobus First Needles (None) 38.614947100000000 -90.258373100000000 69552
Mon Aug 29 00:00:00 GMT 2016 MBGYouthandFamily Eastern white pine Pinus strobus Pollen (None) 38.614947100000000 -90.258373100000000 69553
Mon Aug 29 00:00:00 GMT 2016 MBGYouthandFamily Eastern white pine Pinus strobus Fruit (Early) 38.614947100000000 -90.258373100000000 69554
Mon Sep 12 00:00:00 GMT 2016 DrewPirko Eastern white pine Pinus strobus First Needles (None) 38.912070000000000 -77.498570000000000 69765
Mon Sep 12 00:00:00 GMT 2016 DrewPirko Eastern white pine Pinus strobus Pollen (None) 38.912070000000000 -77.498570000000000 69766
Mon Sep 12 00:00:00 GMT 2016 DrewPirko Eastern white pine Pinus strobus Fruit (Early) 38.912070000000000 -77.498570000000000 69767
Mon Sep 26 00:00:00 GMT 2016 MBGYouthandFamily Eastern white pine Pinus strobus First Needles (None) 38.614947100000000 -90.258373100000000 70259
Mon Sep 26 00:00:00 GMT 2016 MBGYouthandFamily Eastern white pine Pinus strobus Pollen (None) 38.614947100000000 -90.258373100000000 70260
Mon Sep 26 00:00:00 GMT 2016 MBGYouthandFamily Eastern white pine Pinus strobus Fruit (Early) 38.614947100000000 -90.258373100000000 70261
Mon Sep 26 00:00:00 GMT 2016 MBGYouthandFamily Eastern white pine Pinus strobus First Needles (None) 38.614890500000000 -90.258110400000000 70262
Mon Sep 26 00:00:00 GMT 2016 MBGYouthandFamily Eastern white pine Pinus strobus Pollen (None) 38.614890500000000 -90.258110400000000 70263
Mon Sep 26 00:00:00 GMT 2016 MBGYouthandFamily Eastern white pine Pinus strobus Fruit (Middle) 38.614890500000000 -90.258110400000000 70264
Mon Oct 17 00:00:00 GMT 2016 MBGYouthandFamily Eastern white pine Pinus strobus First Needles 38.614890500000000 -90.258110400000000 70993
Mon Oct 17 00:00:00 GMT 2016 MBGYouthandFamily Eastern white pine Pinus strobus Pollen (None) 38.614890500000000 -90.258110400000000 70994
Mon Oct 17 00:00:00 GMT 2016 MBGYouthandFamily Eastern white pine Pinus strobus Fruit (Early) 38.614890500000000 -90.258110400000000 70995
Mon Oct 17 00:00:00 GMT 2016 MBGYouthandFamily Eastern white pine Pinus strobus First Needles (None) 38.614947100000000 -90.258373100000000 70996
Mon Oct 17 00:00:00 GMT 2016 MBGYouthandFamily Eastern white pine Pinus strobus Pollen (None) 38.614947100000000 -90.258373100000000 70997
Mon Oct 17 00:00:00 GMT 2016 MBGYouthandFamily Eastern white pine Pinus strobus Fruit (Early) 38.614947100000000 -90.258373100000000 70998
Thu Oct 27 00:00:00 GMT 2016 rshuman Eastern white pine Pinus strobus First Needles (None) 44.692670000000000 -73.694040000000000 71642
Thu Oct 27 00:00:00 GMT 2016 rshuman Eastern white pine Pinus strobus Pollen (None) 44.692670000000000 -73.694040000000000 71643
Thu Oct 27 00:00:00 GMT 2016 rshuman Eastern white pine Pinus strobus Fruit (None) 44.692670000000000 -73.694040000000000 71644
Mon Oct 31 00:00:00 GMT 2016 rshuman Eastern white pine Pinus strobus First Needles 44.723670000000000 -73.579090000000000 71861
Mon Oct 31 00:00:00 GMT 2016 rshuman Eastern white pine Pinus strobus Pollen (None) 44.723670000000000 -73.579090000000000 71862
Mon Oct 31 00:00:00 GMT 2016 rshuman Eastern white pine Pinus strobus Fruit (None) 44.723670000000000 -73.579090000000000 71863
Mon Oct 31 00:00:00 GMT 2016 rshuman Eastern white pine Pinus strobus First Needles (None) 44.695224000000000 -73.558907000000000 72002
Mon Oct 31 00:00:00 GMT 2016 rshuman Eastern white pine Pinus strobus Pollen (None) 44.695224000000000 -73.558907000000000 72003
Mon Oct 31 00:00:00 GMT 2016 rshuman Eastern white pine Pinus strobus Fruit (Early) 44.695224000000000 -73.558907000000000 72004
Mon Oct 17 00:00:00 GMT 2016 rshuman Eastern white pine Pinus strobus First Needles (None) 44.697340000000000 -73.542690000000000 72057
Mon Oct 17 00:00:00 GMT 2016 rshuman Eastern white pine Pinus strobus Pollen (None) 44.697340000000000 -73.542690000000000 72058
Mon Oct 17 00:00:00 GMT 2016 rshuman Eastern white pine Pinus strobus Fruit (None) 44.697340000000000 -73.542690000000000 72059
Wed Nov 02 00:00:00 GMT 2016 gobrechj Eastern white pine Pinus strobus First Needles (None) 40.000000000000000 -100.000000000000000 72265
Wed Nov 02 00:00:00 GMT 2016 gobrechj Eastern white pine Pinus strobus Pollen (None) 40.000000000000000 -100.000000000000000 72266
Wed Nov 02 00:00:00 GMT 2016 gobrechj Eastern white pine Pinus strobus Fruit (None) 40.000000000000000 -100.000000000000000 72267
Wed Nov 02 00:00:00 GMT 2016 gobrechj Eastern white pine Pinus strobus First Needles (None) 39.877740000000000 -76.870893000000000 72278
Wed Nov 02 00:00:00 GMT 2016 gobrechj Eastern white pine Pinus strobus Pollen (None) 39.877740000000000 -76.870893000000000 72279
Wed Nov 02 00:00:00 GMT 2016 gobrechj Eastern white pine Pinus strobus Fruit (None) 39.877740000000000 -76.870893000000000 72280
Thu Nov 03 00:00:00 GMT 2016 gobrechj Eastern white pine Pinus strobus First Needles (None) 39.877152000000000 -76.870686000000000 72389
Thu Nov 03 00:00:00 GMT 2016 gobrechj Eastern white pine Pinus strobus First Needles (None) 39.877152000000000 -76.870686000000000 72390
Thu Nov 03 00:00:00 GMT 2016 gobrechj Eastern white pine Pinus strobus Pollen (None) 39.877152000000000 -76.870686000000000 72391
Thu Nov 03 00:00:00 GMT 2016 gobrechj Eastern white pine Pinus strobus Pollen (None) 39.877152000000000 -76.870686000000000 72392
Thu Nov 03 00:00:00 GMT 2016 gobrechj Eastern white pine Pinus strobus Fruit (None) 39.877152000000000 -76.870686000000000 72393
Thu Nov 03 00:00:00 GMT 2016 gobrechj Eastern white pine Pinus strobus Fruit (None) 39.877152000000000 -76.870686000000000 72394
Mon Nov 07 00:00:00 GMT 2016 gobrechj Eastern white pine Pinus strobus First Needles (None) 39.874540000000000 -76.865810000000000 72708
Mon Nov 07 00:00:00 GMT 2016 gobrechj Eastern white pine Pinus strobus First Needles (None) 39.874540000000000 -76.865810000000000 72709
Mon Nov 07 00:00:00 GMT 2016 gobrechj Eastern white pine Pinus strobus First Needles (None) 39.874540000000000 -76.865810000000000 72710
Mon Nov 07 00:00:00 GMT 2016 gobrechj Eastern white pine Pinus strobus First Needles (None) 39.874540000000000 -76.865810000000000 72711
Mon Nov 07 00:00:00 GMT 2016 gobrechj Eastern white pine Pinus strobus First Needles (None) 39.874540000000000 -76.865810000000000 72712
Mon Nov 07 00:00:00 GMT 2016 gobrechj Eastern white pine Pinus strobus Pollen (None) 39.874540000000000 -76.865810000000000 72713
Mon Nov 07 00:00:00 GMT 2016 gobrechj Eastern white pine Pinus strobus Pollen (None) 39.874540000000000 -76.865810000000000 72714
Mon Nov 07 00:00:00 GMT 2016 gobrechj Eastern white pine Pinus strobus Pollen (None) 39.874540000000000 -76.865810000000000 72715
Mon Nov 07 00:00:00 GMT 2016 gobrechj Eastern white pine Pinus strobus Pollen (None) 39.874540000000000 -76.865810000000000 72716
Mon Nov 07 00:00:00 GMT 2016 gobrechj Eastern white pine Pinus strobus Pollen (None) 39.874540000000000 -76.865810000000000 72717
Mon Nov 07 00:00:00 GMT 2016 gobrechj Eastern white pine Pinus strobus Fruit (None) 39.874540000000000 -76.865810000000000 72718
Mon Nov 07 00:00:00 GMT 2016 gobrechj Eastern white pine Pinus strobus Fruit (None) 39.874540000000000 -76.865810000000000 72719
Mon Nov 07 00:00:00 GMT 2016 gobrechj Eastern white pine Pinus strobus Fruit (None) 39.874540000000000 -76.865810000000000 72720
Mon Nov 07 00:00:00 GMT 2016 gobrechj Eastern white pine Pinus strobus Fruit (None) 39.874540000000000 -76.865810000000000 72721
Mon Nov 07 00:00:00 GMT 2016 gobrechj Eastern white pine Pinus strobus Fruit (None) 39.874540000000000 -76.865810000000000 72722
Tue Nov 08 00:00:00 GMT 2016 gobrechj Eastern white pine Pinus strobus First Needles (None) 39.874540000000000 -76.865810000000000 72741
Tue Nov 08 00:00:00 GMT 2016 gobrechj Eastern white pine Pinus strobus Pollen (Early) 39.874540000000000 -76.865810000000000 72742
Tue Nov 08 00:00:00 GMT 2016 gobrechj Eastern white pine Pinus strobus First Needles (None) 39.874540000000000 -76.865810000000000 72745
Tue Nov 08 00:00:00 GMT 2016 gobrechj Eastern white pine Pinus strobus Fruit (None) 39.874540000000000 -76.865810000000000 72746
Tue Nov 08 00:00:00 GMT 2016 gobrechj Eastern white pine Pinus strobus Pollen (Early) 39.874540000000000 -76.865810000000000 72747
Tue Nov 08 00:00:00 GMT 2016 gobrechj Eastern white pine Pinus strobus Fruit (None) 39.874540000000000 -76.865810000000000 72748
Mon Nov 21 00:00:00 GMT 2016 MBGYouthandFamily Eastern white pine Pinus strobus First Needles (None) 38.614890500000000 -90.258110400000000 73865
Mon Nov 21 00:00:00 GMT 2016 MBGYouthandFamily Eastern white pine Pinus strobus Pollen (None) 38.614890500000000 -90.258110400000000 73866
Mon Nov 21 00:00:00 GMT 2016 MBGYouthandFamily Eastern white pine Pinus strobus Fruit (Middle) 38.614890500000000 -90.258110400000000 73867
Mon Nov 21 00:00:00 GMT 2016 MBGYouthandFamily Eastern white pine Pinus strobus First Needles (None) 38.614947100000000 -90.258373100000000 73868
Mon Nov 21 00:00:00 GMT 2016 MBGYouthandFamily Eastern white pine Pinus strobus Pollen (None) 38.614947100000000 -90.258373100000000 73869
Mon Nov 21 00:00:00 GMT 2016 MBGYouthandFamily Eastern white pine Pinus strobus Fruit (Middle) 38.614947100000000 -90.258373100000000 73870
Mon Dec 12 00:00:00 GMT 2016 MBGYouthandFamily Eastern white pine Pinus strobus First Needles (None) 38.614890500000000 -90.258110400000000 74256
Mon Dec 12 00:00:00 GMT 2016 MBGYouthandFamily Eastern white pine Pinus strobus Pollen (None) 38.614890500000000 -90.258110400000000 74257
Mon Dec 12 00:00:00 GMT 2016 MBGYouthandFamily Eastern white pine Pinus strobus Fruit (Early) 38.614890500000000 -90.258110400000000 74258
Mon Dec 12 00:00:00 GMT 2016 MBGYouthandFamily Eastern white pine Pinus strobus First Needles (None) 38.614947100000000 -90.258373100000000 74259
Mon Dec 12 00:00:00 GMT 2016 MBGYouthandFamily Eastern white pine Pinus strobus Pollen (None) 38.614947100000000 -90.258373100000000 74260
Mon Dec 12 00:00:00 GMT 2016 MBGYouthandFamily Eastern white pine Pinus strobus Fruit (Early) 38.614947100000000 -90.258373100000000 74261
Wed Dec 14 00:00:00 GMT 2016 gobrechj Eastern white pine Pinus strobus First Needles (None) 39.878130000000000 -76.871050000000000 74366
Wed Dec 14 00:00:00 GMT 2016 gobrechj Eastern white pine Pinus strobus First Needles (None) 39.878130000000000 -76.871050000000000 74367
Wed Dec 14 00:00:00 GMT 2016 gobrechj Eastern white pine Pinus strobus Pollen (None) 39.878130000000000 -76.871050000000000 74368
Wed Dec 14 00:00:00 GMT 2016 gobrechj Eastern white pine Pinus strobus Pollen (None) 39.878130000000000 -76.871050000000000 74369
Wed Dec 14 00:00:00 GMT 2016 gobrechj Eastern white pine Pinus strobus First Needles (None) 39.878130000000000 -76.871050000000000 74370
Wed Dec 14 00:00:00 GMT 2016 gobrechj Eastern white pine Pinus strobus Fruit (None) 39.878130000000000 -76.871050000000000 74371
Wed Dec 14 00:00:00 GMT 2016 gobrechj Eastern white pine Pinus strobus First Needles (None) 39.878130000000000 -76.871050000000000 74372
Wed Dec 14 00:00:00 GMT 2016 gobrechj Eastern white pine Pinus strobus Fruit (None) 39.878130000000000 -76.871050000000000 74373
Wed Dec 14 00:00:00 GMT 2016 gobrechj Eastern white pine Pinus strobus Pollen (None) 39.878130000000000 -76.871050000000000 74374
Wed Dec 14 00:00:00 GMT 2016 gobrechj Eastern white pine Pinus strobus Pollen (None) 39.878130000000000 -76.871050000000000 74375
Wed Dec 14 00:00:00 GMT 2016 gobrechj Eastern white pine Pinus strobus Fruit (None) 39.878130000000000 -76.871050000000000 74376
Wed Dec 14 00:00:00 GMT 2016 gobrechj Eastern white pine Pinus strobus Fruit (None) 39.878130000000000 -76.871050000000000 74377
Wed Dec 14 00:00:00 GMT 2016 gobrechj Eastern white pine Pinus strobus First Needles (None) 39.878130000000000 -76.871050000000000 74378
Wed Dec 14 00:00:00 GMT 2016 gobrechj Eastern white pine Pinus strobus First Needles (None) 39.878130000000000 -76.871050000000000 74379
Wed Dec 14 00:00:00 GMT 2016 gobrechj Eastern white pine Pinus strobus Pollen (None) 39.878130000000000 -76.871050000000000 74380
Wed Dec 14 00:00:00 GMT 2016 gobrechj Eastern white pine Pinus strobus Pollen (None) 39.878130000000000 -76.871050000000000 74381
Wed Dec 14 00:00:00 GMT 2016 gobrechj Eastern white pine Pinus strobus Fruit (None) 39.878130000000000 -76.871050000000000 74382
Wed Dec 14 00:00:00 GMT 2016 gobrechj Eastern white pine Pinus strobus Fruit (None) 39.878130000000000 -76.871050000000000 74383
Tue Feb 07 00:00:00 GMT 2017 MBGYouthandFamily Eastern white pine Pinus strobus First Needles (None) 38.614890500000000 -90.258110400000000 74763
Tue Feb 07 00:00:00 GMT 2017 MBGYouthandFamily Eastern white pine Pinus strobus Pollen (None) 38.614890500000000 -90.258110400000000 74764
Tue Feb 07 00:00:00 GMT 2017 MBGYouthandFamily Eastern white pine Pinus strobus Fruit (None) 38.614890500000000 -90.258110400000000 74765
Tue Feb 07 00:00:00 GMT 2017 MBGYouthandFamily Eastern white pine Pinus strobus First Needles (None) 38.614947100000000 -90.258373100000000 74766
Tue Feb 07 00:00:00 GMT 2017 MBGYouthandFamily Eastern white pine Pinus strobus Pollen (None) 38.614947100000000 -90.258373100000000 74767
Tue Feb 07 00:00:00 GMT 2017 MBGYouthandFamily Eastern white pine Pinus strobus Fruit (None) 38.614947100000000 -90.258373100000000 74768
Mon Mar 13 00:00:00 GMT 2017 MBGYouthandFamily Eastern white pine Pinus strobus First Needles (None) 38.614890500000000 -90.258110400000000 75587
Mon Mar 13 00:00:00 GMT 2017 MBGYouthandFamily Eastern white pine Pinus strobus Pollen (None) 38.614890500000000 -90.258110400000000 75588
Mon Mar 13 00:00:00 GMT 2017 MBGYouthandFamily Eastern white pine Pinus strobus Fruit (None) 38.614890500000000 -90.258110400000000 75589
Mon Mar 13 00:00:00 GMT 2017 MBGYouthandFamily Eastern white pine Pinus strobus First Needles (None) 38.614947100000000 -90.258373100000000 75590
Mon Mar 13 00:00:00 GMT 2017 MBGYouthandFamily Eastern white pine Pinus strobus Pollen (None) 38.614947100000000 -90.258373100000000 75591
Mon Mar 13 00:00:00 GMT 2017 MBGYouthandFamily Eastern white pine Pinus strobus Fruit (None) 38.614947100000000 -90.258373100000000 75592
Sun Mar 19 00:00:00 GMT 2017 jamesang93 Eastern white pine Pinus strobus First Needles (None) 42.366250000000000 -71.258530000000000 75676
Sun Mar 19 00:00:00 GMT 2017 jamesang93 Eastern white pine Pinus strobus Pollen (None) 42.366250000000000 -71.258530000000000 75677
Sun Mar 19 00:00:00 GMT 2017 jamesang93 Eastern white pine Pinus strobus Fruit (None) 42.366250000000000 -71.258530000000000 75678
Wed Apr 05 00:00:00 GMT 2017 gobrechj Eastern white pine Pinus strobus First Needles (None) 41.013066000000000 -70.400391000000000 76866
Wed Apr 05 00:00:00 GMT 2017 gobrechj Eastern white pine Pinus strobus First Needles (None) 41.013066000000000 -70.400391000000000 76867
Wed Apr 05 00:00:00 GMT 2017 gobrechj Eastern white pine Pinus strobus Pollen (None) 41.013066000000000 -70.400391000000000 76868
Wed Apr 05 00:00:00 GMT 2017 gobrechj Eastern white pine Pinus strobus Pollen (None) 41.013066000000000 -70.400391000000000 76869
Wed Apr 05 00:00:00 GMT 2017 gobrechj Eastern white pine Pinus strobus Fruit (None) 41.013066000000000 -70.400391000000000 76870
Wed Apr 05 00:00:00 GMT 2017 gobrechj Eastern white pine Pinus strobus Fruit (None) 41.013066000000000 -70.400391000000000 76871
Tue Apr 11 00:00:00 GMT 2017 gobrechj Eastern white pine Pinus strobus First Needles (None) 40.000000000000000 -100.000000000000000 77553
Tue Apr 11 00:00:00 GMT 2017 gobrechj Eastern white pine Pinus strobus Pollen (None) 40.000000000000000 -100.000000000000000 77554
Tue Apr 11 00:00:00 GMT 2017 gobrechj Eastern white pine Pinus strobus First Needles (None) 40.000000000000000 -100.000000000000000 77555
Tue Apr 11 00:00:00 GMT 2017 gobrechj Eastern white pine Pinus strobus Fruit (None) 40.000000000000000 -100.000000000000000 77556
Tue Apr 11 00:00:00 GMT 2017 gobrechj Eastern white pine Pinus strobus Pollen (None) 40.000000000000000 -100.000000000000000 77557
Tue Apr 11 00:00:00 GMT 2017 gobrechj Eastern white pine Pinus strobus Fruit (None) 40.000000000000000 -100.000000000000000 77558
Wed Apr 12 00:00:00 GMT 2017 gobrechj Eastern white pine Pinus strobus First Needles 39.874540000000000 -76.865810000000000 77757
Wed Apr 12 00:00:00 GMT 2017 gobrechj Eastern white pine Pinus strobus First Needles 39.874540000000000 -76.865810000000000 77758
Wed Apr 12 00:00:00 GMT 2017 gobrechj Eastern white pine Pinus strobus Pollen (Middle) 39.874540000000000 -76.865810000000000 77759
Wed Apr 12 00:00:00 GMT 2017 gobrechj Eastern white pine Pinus strobus Pollen (Middle) 39.874540000000000 -76.865810000000000 77760
Wed Apr 12 00:00:00 GMT 2017 gobrechj Eastern white pine Pinus strobus Fruit (None) 39.874540000000000 -76.865810000000000 77761
Wed Apr 12 00:00:00 GMT 2017 gobrechj Eastern white pine Pinus strobus Fruit (None) 39.874540000000000 -76.865810000000000 77762
Sun Apr 16 00:00:00 GMT 2017 miranda950 Eastern white pine Pinus strobus First Needles (None) 37.436290000000000 -122.116360000000000 78275
Sun Apr 16 00:00:00 GMT 2017 miranda950 Eastern white pine Pinus strobus Pollen (Early) 37.436290000000000 -122.116360000000000 78276
Sun Apr 16 00:00:00 GMT 2017 miranda950 Eastern white pine Pinus strobus Fruit (Middle) 37.436290000000000 -122.116360000000000 78277
Tue Apr 18 00:00:00 GMT 2017 bthomps1 Eastern white pine Pinus strobus First Needles 38.195980000000000 -85.534280000000000 78567
Sat Apr 15 00:00:00 GMT 2017 ivoryttang Eastern white pine Pinus strobus First Needles 40.000000000000000 -100.000000000000000 78963
Sat Apr 15 00:00:00 GMT 2017 ivoryttang Eastern white pine Pinus strobus Pollen (None) 40.000000000000000 -100.000000000000000 78964
Sat Apr 15 00:00:00 GMT 2017 ivoryttang Eastern white pine Pinus strobus Fruit (None) 40.000000000000000 -100.000000000000000 78965
Mon Apr 17 00:00:00 GMT 2017 MBGYouthandFamily Eastern white pine Pinus strobus First Needles 38.614890500000000 -90.258110400000000 79107
Mon Apr 17 00:00:00 GMT 2017 MBGYouthandFamily Eastern white pine Pinus strobus Pollen (None) 38.614890500000000 -90.258110400000000 79108
Mon Apr 17 00:00:00 GMT 2017 MBGYouthandFamily Eastern white pine Pinus strobus Fruit (None) 38.614890500000000 -90.258110400000000 79109
Mon Apr 17 00:00:00 GMT 2017 MBGYouthandFamily Eastern white pine Pinus strobus First Needles 38.614947100000000 -90.258373100000000 79110
Mon Apr 17 00:00:00 GMT 2017 MBGYouthandFamily Eastern white pine Pinus strobus Pollen (None) 38.614947100000000 -90.258373100000000 79111
Mon Apr 17 00:00:00 GMT 2017 MBGYouthandFamily Eastern white pine Pinus strobus Fruit (Early) 38.614947100000000 -90.258373100000000 79112
Sun Apr 23 00:00:00 GMT 2017 sarahorior Eastern white pine Pinus strobus First Needles 37.365280000000000 -122.176400000000000 79667
Sun Apr 23 00:00:00 GMT 2017 sarahorior Eastern white pine Pinus strobus Pollen (Early) 37.365280000000000 -122.176400000000000 79669
Sun Apr 23 00:00:00 GMT 2017 sarahorior Eastern white pine Pinus strobus Fruit (None) 37.365280000000000 -122.176400000000000 79671
Mon Apr 24 00:00:00 GMT 2017 mkowalski11 Eastern white pine Pinus strobus First Needles 40.035310000000000 -75.166520000000000 79966
Mon Apr 24 00:00:00 GMT 2017 mkowalski11 Eastern white pine Pinus strobus Pollen (Early) 40.035310000000000 -75.166520000000000 79967
Mon Apr 24 00:00:00 GMT 2017 mkowalski11 Eastern white pine Pinus strobus Fruit (Early) 40.035310000000000 -75.166520000000000 79968
Tue May 10 00:00:00 GMT 2016 BMBTREE Eastern white pine Pinus strobus First Needles 42.237605000000000 -71.776031000000000 80008
Wed Apr 26 00:00:00 GMT 2017 Jason Eastern white pine Pinus strobus First Needles (None) 40.712081000000000 -74.007299000000000 80383
Wed Apr 26 00:00:00 GMT 2017 Jason Eastern white pine Pinus strobus Pollen (None) 40.712081000000000 -74.007299000000000 80384
Wed Apr 26 00:00:00 GMT 2017 Jason Eastern white pine Pinus strobus Fruit (Early) 40.712081000000000 -74.007299000000000 80385
Wed Apr 26 00:00:00 GMT 2017 yc03626n Eastern white pine Pinus strobus First Needles (None) 40.712850000000000 -74.006460000000000 80386
Wed Apr 26 00:00:00 GMT 2017 yc03626n Eastern white pine Pinus strobus Pollen (None) 40.712850000000000 -74.006460000000000 80387
Wed Apr 26 00:00:00 GMT 2017 yc03626n Eastern white pine Pinus strobus Fruit (Early) 40.712850000000000 -74.006460000000000 80388
Wed Apr 26 00:00:00 GMT 2017 ebaba Eastern white pine Pinus strobus First Needles (None) 40.711993000000000 -74.007238000000000 80389
Wed Apr 26 00:00:00 GMT 2017 ebaba Eastern white pine Pinus strobus Pollen (None) 40.711993000000000 -74.007238000000000 80390
Wed Apr 26 00:00:00 GMT 2017 ebaba Eastern white pine Pinus strobus Fruit (Early) 40.711993000000000 -74.007238000000000 80391
Fri Apr 07 00:00:00 GMT 2017 BMBTREE Eastern white pine Pinus strobus First Needles 42.237605000000000 -71.776031000000000 80439

*All downloadable materials require the free Adobe Reader.